createdAt,value
2017-08-11T00:02:22.766Z,15.00
2017-08-11T00:04:51.985Z,14.90
2017-08-11T00:07:21.424Z,14.80
2017-08-11T00:09:50.731Z,14.70
2017-08-11T00:12:19.414Z,14.70
2017-08-11T00:14:48.209Z,14.70
2017-08-11T00:17:16.529Z,14.60
2017-08-11T00:19:44.867Z,14.50
2017-08-11T00:22:13.248Z,14.60
2017-08-11T00:24:42.321Z,14.70
2017-08-11T00:27:14.754Z,14.70
2017-08-11T00:29:43.113Z,14.70
2017-08-11T00:32:12.209Z,14.70
2017-08-11T00:34:40.920Z,14.60
2017-08-11T00:37:09.380Z,14.60
2017-08-11T00:39:38.467Z,14.60
2017-08-11T00:42:07.276Z,14.50
2017-08-11T00:44:35.600Z,14.60
2017-08-11T00:47:03.941Z,14.50
2017-08-11T00:49:32.630Z,14.60
2017-08-11T00:52:01.113Z,14.60
2017-08-11T00:54:29.638Z,14.70
2017-08-11T00:56:59.147Z,14.80
2017-08-11T00:59:27.987Z,14.80
2017-08-11T01:01:56.875Z,14.90
2017-08-11T01:04:27.390Z,15.00
2017-08-11T01:06:56.292Z,15.00
2017-08-11T01:09:25.080Z,15.00
2017-08-11T01:11:54.524Z,15.00
2017-08-11T01:14:23.582Z,14.90
2017-08-11T01:16:53.414Z,14.90
2017-08-11T01:19:22.366Z,14.80
2017-08-11T01:21:51.929Z,14.70
2017-08-11T01:24:20.400Z,14.60
2017-08-11T01:26:49.625Z,14.60
2017-08-11T01:29:18.758Z,14.60
2017-08-11T01:31:47.524Z,14.50
2017-08-11T01:34:16.265Z,14.60
2017-08-11T01:36:44.660Z,14.60
2017-08-11T01:39:12.988Z,14.60
2017-08-11T01:41:42.315Z,14.60
2017-08-11T01:44:10.693Z,14.60
2017-08-11T01:46:39.024Z,14.60
2017-08-11T01:49:07.842Z,14.60
2017-08-11T01:51:36.266Z,14.60
2017-08-11T01:54:05.003Z,14.50
2017-08-11T01:56:33.608Z,14.40
2017-08-11T01:59:02.022Z,14.50
2017-08-11T02:01:30.531Z,14.40
2017-08-11T02:03:59.069Z,14.50
2017-08-11T02:06:27.555Z,14.60
2017-08-11T02:08:56.030Z,14.60
2017-08-11T02:11:25.197Z,14.50
2017-08-11T02:13:53.798Z,14.50
2017-08-11T02:16:22.593Z,14.50
2017-08-11T02:18:51.578Z,14.50
2017-08-11T02:21:21.096Z,14.60
2017-08-11T02:23:50.455Z,14.40
2017-08-11T02:26:19.638Z,14.40
2017-08-11T02:28:47.993Z,14.50
2017-08-11T02:31:16.349Z,14.50
2017-08-11T02:33:45.091Z,14.50
2017-08-11T02:36:13.476Z,14.40
2017-08-11T02:38:42.817Z,14.40
2017-08-11T02:41:12.158Z,14.30
2017-08-11T02:43:40.540Z,14.30
2017-08-11T02:46:08.893Z,14.30
2017-08-11T02:48:38.263Z,14.30
2017-08-11T02:51:06.605Z,14.40
2017-08-11T02:53:35.108Z,14.40
2017-08-11T02:56:06.664Z,14.40
2017-08-11T02:58:35.040Z,14.40
2017-08-11T03:01:05.184Z,14.30
2017-08-11T03:03:34.027Z,14.30
2017-08-11T03:06:02.456Z,14.30
2017-08-11T03:08:31.170Z,14.30
2017-08-11T03:11:00.064Z,14.40
2017-08-11T03:13:28.668Z,14.50
2017-08-11T03:15:57.353Z,14.50
2017-08-11T03:18:27.843Z,14.60
2017-08-11T03:20:57.730Z,14.70
2017-08-11T03:23:27.702Z,14.70
2017-08-11T03:25:56.979Z,14.70
2017-08-11T03:28:26.484Z,14.80
2017-08-11T03:30:55.582Z,14.70
2017-08-11T03:33:26.461Z,14.60
2017-08-11T03:35:56.628Z,14.60
2017-08-11T03:38:25.771Z,14.60
2017-08-11T03:40:55.436Z,14.60
2017-08-11T03:43:24.092Z,14.60
2017-08-11T03:45:53.252Z,14.60
2017-08-11T03:48:23.714Z,14.60
2017-08-11T03:50:52.454Z,14.70
2017-08-11T03:53:21.198Z,14.70
2017-08-11T03:55:50.000Z,14.70
2017-08-11T03:58:18.900Z,14.70
2017-08-11T04:00:47.266Z,14.80
2017-08-11T04:03:15.999Z,14.90
2017-08-11T04:05:44.323Z,15.00
2017-08-11T04:08:12.681Z,15.00
2017-08-11T04:10:41.100Z,15.10
2017-08-11T04:13:09.419Z,15.10
2017-08-11T04:15:37.775Z,15.10
2017-08-11T04:18:06.560Z,15.10
2017-08-11T04:20:34.881Z,15.10
2017-08-11T04:23:04.164Z,15.10
2017-08-11T04:25:34.040Z,15.00
2017-08-11T04:28:02.546Z,15.00
2017-08-11T04:30:31.098Z,15.00
2017-08-11T04:32:59.497Z,15.00
2017-08-11T04:35:28.043Z,15.00
2017-08-11T04:37:56.852Z,15.00
2017-08-11T04:40:25.618Z,15.10
2017-08-11T04:42:55.561Z,15.10
2017-08-11T04:45:25.118Z,15.10
2017-08-11T04:47:55.773Z,15.10
2017-08-11T04:50:24.724Z,15.20
2017-08-11T04:52:56.112Z,15.20
2017-08-11T04:55:26.000Z,15.20
2017-08-11T04:57:55.364Z,15.30
2017-08-11T05:00:24.617Z,15.30
2017-08-11T05:02:54.069Z,15.30
2017-08-11T05:05:24.552Z,15.30
2017-08-11T05:07:55.946Z,15.40
2017-08-11T05:10:25.681Z,15.40
2017-08-11T05:12:56.241Z,15.50
2017-08-11T05:15:27.100Z,15.50
2017-08-11T05:17:57.029Z,15.40
2017-08-11T05:20:26.237Z,15.50
2017-08-11T05:22:55.495Z,15.50
2017-08-11T05:25:26.514Z,15.60
2017-08-11T05:27:55.604Z,15.60
2017-08-11T05:30:25.032Z,15.60
2017-08-11T05:32:54.455Z,15.70
2017-08-11T05:35:23.600Z,15.70
2017-08-11T05:37:53.008Z,15.70
2017-08-11T05:40:21.842Z,15.80
2017-08-11T05:42:50.302Z,15.90
2017-08-11T05:45:20.137Z,15.90
2017-08-11T05:47:48.670Z,16.00
2017-08-11T05:50:17.037Z,16.00
2017-08-11T05:52:45.527Z,16.00
2017-08-11T05:55:13.854Z,16.10
2017-08-11T05:57:42.184Z,16.10
2017-08-11T06:00:10.662Z,16.10
2017-08-11T06:02:39.042Z,16.10
2017-08-11T06:05:07.732Z,16.10
2017-08-11T06:07:37.541Z,16.10
2017-08-11T06:10:05.920Z,16.10
2017-08-11T06:12:34.277Z,16.20
2017-08-11T06:15:03.026Z,16.20
2017-08-11T06:17:31.509Z,16.20
2017-08-11T06:20:01.107Z,16.20
2017-08-11T06:22:29.730Z,16.20
2017-08-11T06:24:58.197Z,16.30
2017-08-11T06:27:27.400Z,16.40
2017-08-11T06:29:56.872Z,16.40
2017-08-11T06:32:25.309Z,16.40
2017-08-11T06:34:54.820Z,16.40
2017-08-11T06:37:24.716Z,16.30
2017-08-11T06:39:54.292Z,16.40
2017-08-11T06:42:23.260Z,16.40
2017-08-11T06:44:52.518Z,16.30
2017-08-11T06:47:21.155Z,16.30
2017-08-11T06:49:49.670Z,16.30
2017-08-11T06:52:18.841Z,16.30
2017-08-11T06:54:47.394Z,16.20
2017-08-11T06:57:15.751Z,16.30
2017-08-11T06:59:45.051Z,16.40
2017-08-11T07:02:14.287Z,16.30
2017-08-11T07:04:43.374Z,16.20
2017-08-11T07:07:12.723Z,16.30
2017-08-11T07:09:41.036Z,16.30
2017-08-11T07:12:09.349Z,16.30
2017-08-11T07:14:38.370Z,16.40
2017-08-11T07:17:06.765Z,16.40
2017-08-11T07:19:35.101Z,16.40
2017-08-11T07:22:03.822Z,16.50
2017-08-11T07:24:32.148Z,16.40
2017-08-11T07:27:00.844Z,16.50
2017-08-11T07:29:30.561Z,16.60
2017-08-11T07:31:59.009Z,16.70
2017-08-11T07:34:27.387Z,16.90
2017-08-11T07:36:56.731Z,17.00
2017-08-11T07:39:25.210Z,17.10
2017-08-11T07:41:54.235Z,16.80
2017-08-11T07:44:24.322Z,16.80
2017-08-11T07:46:53.204Z,16.90
2017-08-11T07:49:21.986Z,16.90
2017-08-11T07:51:50.750Z,17.00
2017-08-11T07:54:19.909Z,16.80
2017-08-11T07:56:53.029Z,16.90
2017-08-11T07:59:21.995Z,16.70
2017-08-11T08:01:50.979Z,16.90
2017-08-11T08:04:19.767Z,16.90
2017-08-11T08:06:48.318Z,17.00
2017-08-11T08:09:17.609Z,17.10
2017-08-11T08:11:48.589Z,17.00
2017-08-11T08:14:16.900Z,17.00
2017-08-11T08:16:46.018Z,17.20
2017-08-11T08:19:14.885Z,17.20
2017-08-11T08:21:43.231Z,17.10
2017-08-11T08:24:12.338Z,17.20
2017-08-11T08:26:41.826Z,17.20
2017-08-11T08:29:10.145Z,17.10
2017-08-11T08:31:39.229Z,17.30
2017-08-11T08:34:09.558Z,17.20
2017-08-11T08:36:37.906Z,17.20
2017-08-11T08:39:08.015Z,16.90
2017-08-11T08:41:38.660Z,16.90
2017-08-11T08:44:06.969Z,16.90
2017-08-11T08:46:35.314Z,17.00
2017-08-11T08:49:04.710Z,17.00
2017-08-11T08:51:33.428Z,17.00
2017-08-11T08:54:01.780Z,17.00
2017-08-11T08:56:30.631Z,17.00
2017-08-11T08:58:59.107Z,17.00
2017-08-11T09:01:28.551Z,16.90
2017-08-11T09:03:57.244Z,16.90
2017-08-11T09:06:26.385Z,17.00
2017-08-11T09:08:55.457Z,17.00
2017-08-11T09:11:24.560Z,17.10
2017-08-11T09:13:53.045Z,17.40
2017-08-11T09:16:21.973Z,17.50
2017-08-11T09:18:50.942Z,17.60
2017-08-11T09:21:23.399Z,17.70
2017-08-11T09:23:52.830Z,17.70
2017-08-11T09:26:33.146Z,17.60
2017-08-11T09:29:13.505Z,17.40
2017-08-11T09:31:53.838Z,17.40
2017-08-11T09:34:34.629Z,17.60
2017-08-11T09:37:03.115Z,17.80
2017-08-11T09:39:31.657Z,17.90
2017-08-11T09:42:00.639Z,18.00
2017-08-11T09:44:29.182Z,18.10
2017-08-11T09:46:57.652Z,18.10
2017-08-11T09:49:26.406Z,17.80
2017-08-11T09:51:54.849Z,17.50
2017-08-11T09:54:23.351Z,17.40
2017-08-11T09:56:52.758Z,17.40
2017-08-11T09:59:22.219Z,17.40
2017-08-11T10:01:50.854Z,17.40
2017-08-11T10:04:19.757Z,17.20
2017-08-11T10:06:48.205Z,17.40
2017-08-11T10:09:16.589Z,17.60
2017-08-11T10:11:45.901Z,17.60
2017-08-11T10:14:14.249Z,17.70
2017-08-11T10:16:42.593Z,17.80
2017-08-11T10:19:10.972Z,17.90
2017-08-11T10:21:39.277Z,17.90
2017-08-11T10:24:07.621Z,17.60
2017-08-11T10:26:36.543Z,17.60
2017-08-11T10:29:05.846Z,17.70
2017-08-11T10:31:34.203Z,17.70
2017-08-11T10:34:02.871Z,17.50
2017-08-11T10:36:31.333Z,17.50
2017-08-11T10:38:59.711Z,17.60
2017-08-11T10:41:28.690Z,17.70
2017-08-11T10:43:58.000Z,17.80
2017-08-11T10:46:26.610Z,17.70
2017-08-11T10:48:55.172Z,17.70
2017-08-11T10:51:23.644Z,17.60
2017-08-11T10:53:52.910Z,17.60
2017-08-11T10:56:22.819Z,17.60
2017-08-11T10:58:51.302Z,17.60
2017-08-11T11:01:22.251Z,17.60
2017-08-11T11:03:52.324Z,17.50
2017-08-11T11:06:21.728Z,17.30
2017-08-11T11:08:50.220Z,17.20
2017-08-11T11:11:19.417Z,17.20
2017-08-11T11:13:47.753Z,17.20
2017-08-11T11:16:16.094Z,17.20
2017-08-11T11:18:44.692Z,17.30
2017-08-11T11:21:13.039Z,17.30
2017-08-11T11:23:41.428Z,17.50
2017-08-11T11:26:10.898Z,17.80
2017-08-11T11:28:39.242Z,17.80
2017-08-11T11:31:08.603Z,17.80
2017-08-11T11:33:38.183Z,17.60
2017-08-11T11:36:07.433Z,17.80
2017-08-11T11:38:35.934Z,17.80
2017-08-11T11:41:06.627Z,17.90
2017-08-11T11:43:36.938Z,17.90
2017-08-11T11:46:05.264Z,17.90
2017-08-11T11:48:33.953Z,17.70
2017-08-11T11:51:02.463Z,17.60
2017-08-11T11:53:30.911Z,17.60
2017-08-11T11:56:01.341Z,17.80
2017-08-11T11:58:30.923Z,17.80
2017-08-11T12:01:00.257Z,17.90
2017-08-11T12:03:28.936Z,17.90
2017-08-11T12:05:57.449Z,17.80
2017-08-11T12:08:25.982Z,17.80
2017-08-11T12:10:55.393Z,17.80
2017-08-11T12:13:25.473Z,17.90
2017-08-11T12:15:54.467Z,17.90
2017-08-11T12:18:24.742Z,17.80
2017-08-11T12:20:54.316Z,17.90
2017-08-11T12:23:23.176Z,17.90
2017-08-11T12:25:52.877Z,17.90
2017-08-11T12:28:22.572Z,18.00
2017-08-11T12:30:51.154Z,17.90
2017-08-11T12:33:21.401Z,17.70
2017-08-11T12:35:51.191Z,17.70
2017-08-11T12:38:20.690Z,17.50
2017-08-11T12:40:50.229Z,17.50
2017-08-11T12:43:18.576Z,17.60
2017-08-11T12:45:47.674Z,17.40
2017-08-11T12:48:17.513Z,17.50
2017-08-11T12:50:45.827Z,17.40
2017-08-11T12:53:14.913Z,17.60
2017-08-11T12:55:43.443Z,17.60
2017-08-11T12:58:11.748Z,17.40
2017-08-11T13:00:40.090Z,17.30
2017-08-11T13:03:09.935Z,17.20
2017-08-11T13:05:38.261Z,17.10
2017-08-11T13:08:07.437Z,17.10
2017-08-11T13:10:36.946Z,17.20
2017-08-11T13:13:05.291Z,17.20
2017-08-11T13:15:34.601Z,17.20
2017-08-11T13:18:05.024Z,17.10
2017-08-11T13:20:34.314Z,17.10
2017-08-11T13:23:02.640Z,17.10
2017-08-11T13:25:32.340Z,17.10
2017-08-11T13:28:00.694Z,17.10
2017-08-11T13:30:30.049Z,17.00
2017-08-11T13:32:59.490Z,17.00
2017-08-11T13:35:28.046Z,17.00
2017-08-11T13:37:56.608Z,17.10
2017-08-11T13:40:25.664Z,17.20
2017-08-11T13:42:55.214Z,17.20
2017-08-11T13:45:23.613Z,17.20
2017-08-11T13:47:53.740Z,17.20
2017-08-11T13:50:23.090Z,17.30
2017-08-11T13:52:51.860Z,17.20
2017-08-11T13:55:22.772Z,17.30
2017-08-11T13:57:52.176Z,17.30
2017-08-11T14:00:20.657Z,17.40
2017-08-11T14:02:49.582Z,17.40
2017-08-11T14:05:18.107Z,17.30
2017-08-11T14:07:46.497Z,17.30
2017-08-11T14:10:15.588Z,17.40
2017-08-11T14:12:43.920Z,17.40
2017-08-11T14:15:13.002Z,17.50
2017-08-11T14:17:42.149Z,17.40
2017-08-11T14:20:10.494Z,17.40
2017-08-11T14:22:38.829Z,17.60
2017-08-11T14:25:07.637Z,17.50
2017-08-11T14:27:35.953Z,17.50
2017-08-11T14:30:05.062Z,17.50
2017-08-11T14:32:33.567Z,17.50
2017-08-11T14:35:03.930Z,17.50
2017-08-11T14:37:32.284Z,17.50
2017-08-11T14:40:02.041Z,17.40
2017-08-11T14:42:30.506Z,17.50
2017-08-11T14:44:59.837Z,17.60
2017-08-11T14:47:28.558Z,17.60
2017-08-11T14:49:57.935Z,17.30
2017-08-11T14:52:28.182Z,17.20
2017-08-11T14:54:57.845Z,17.10
2017-08-11T14:57:26.238Z,17.10
2017-08-11T14:59:55.162Z,17.00
2017-08-11T15:02:24.917Z,17.00
2017-08-11T15:04:53.729Z,17.00
2017-08-11T15:07:22.346Z,16.90
2017-08-11T15:09:52.333Z,17.00
2017-08-11T15:12:22.121Z,17.00
2017-08-11T15:14:50.625Z,17.00
2017-08-11T15:17:19.561Z,17.00
2017-08-11T15:19:48.894Z,16.90
2017-08-11T15:22:17.193Z,16.90
2017-08-11T15:24:48.000Z,16.90
2017-08-11T15:27:16.379Z,16.70
2017-08-11T15:29:44.688Z,16.40
2017-08-11T15:32:14.842Z,16.30
2017-08-11T15:34:44.174Z,16.20
2017-08-11T15:37:13.252Z,16.10
2017-08-11T15:39:42.579Z,16.20
2017-08-11T15:42:11.645Z,16.20
2017-08-11T15:44:39.975Z,16.20
2017-08-11T15:47:08.713Z,16.20
2017-08-11T15:49:37.038Z,16.20
2017-08-11T15:52:05.399Z,16.20
2017-08-11T15:54:34.039Z,16.20
2017-08-11T15:57:03.135Z,16.10
2017-08-11T15:59:32.283Z,16.30
2017-08-11T16:02:02.956Z,16.20
2017-08-11T16:04:32.217Z,16.10
2017-08-11T16:07:01.424Z,16.10
2017-08-11T16:09:31.235Z,16.00
2017-08-11T16:11:59.963Z,16.00
2017-08-11T16:14:28.683Z,15.90
2017-08-11T16:16:57.518Z,15.90
2017-08-11T16:19:26.292Z,15.90
2017-08-11T16:21:55.600Z,16.00
2017-08-11T16:24:24.457Z,16.10
2017-08-11T16:26:54.168Z,16.40
2017-08-11T16:29:23.391Z,16.30
2017-08-11T16:31:52.692Z,16.40
2017-08-11T16:34:21.204Z,16.40
2017-08-11T16:36:49.568Z,16.40
2017-08-11T16:39:18.874Z,16.50
2017-08-11T16:41:47.192Z,16.30
2017-08-11T16:44:15.551Z,16.20
2017-08-11T16:46:44.854Z,16.20
2017-08-11T16:49:13.213Z,16.20
2017-08-11T16:51:41.580Z,16.20
2017-08-11T16:54:09.963Z,16.20
2017-08-11T16:56:38.301Z,16.30
2017-08-11T16:59:15.165Z,16.30
2017-08-11T17:01:43.605Z,16.30
2017-08-11T17:04:12.701Z,16.20
2017-08-11T17:06:41.284Z,16.20
2017-08-11T17:09:09.647Z,16.20
2017-08-11T17:11:38.257Z,16.10
2017-08-11T17:14:07.126Z,16.20
2017-08-11T17:16:35.477Z,16.30
2017-08-11T17:19:04.018Z,16.40
2017-08-11T17:21:33.672Z,16.60
2017-08-11T17:24:02.547Z,16.70
2017-08-11T17:26:32.221Z,16.80
2017-08-11T17:29:01.247Z,16.90
2017-08-11T17:31:29.826Z,17.00
2017-08-11T17:33:58.908Z,17.00
2017-08-11T17:36:27.745Z,17.10
2017-08-11T17:38:56.181Z,17.00
2017-08-11T17:41:24.597Z,17.10
2017-08-11T17:43:53.101Z,17.10
2017-08-11T17:46:21.495Z,17.00
2017-08-11T17:48:53.767Z,16.90
2017-08-11T17:51:24.833Z,16.90
2017-08-11T17:53:53.607Z,16.90
2017-08-11T17:56:22.107Z,16.80
2017-08-11T17:58:50.926Z,16.90
2017-08-11T18:01:19.377Z,16.90
2017-08-11T18:03:48.513Z,16.90
2017-08-11T18:06:17.294Z,16.90
2017-08-11T18:08:45.649Z,16.90
2017-08-11T18:11:13.948Z,16.90
2017-08-11T18:13:43.534Z,16.80
2017-08-11T18:16:11.866Z,16.90
2017-08-11T18:18:42.133Z,16.90
2017-08-11T18:21:11.023Z,16.90
2017-08-11T18:23:39.353Z,16.80
2017-08-11T18:26:09.175Z,16.90
2017-08-11T18:28:37.592Z,16.80
2017-08-11T18:31:05.945Z,16.90
2017-08-11T18:33:35.329Z,16.90
2017-08-11T18:36:04.212Z,16.80
2017-08-11T18:38:32.634Z,16.90
2017-08-11T18:41:01.092Z,16.90
2017-08-11T18:43:30.121Z,16.90
2017-08-11T18:45:58.760Z,17.00
2017-08-11T18:48:27.434Z,17.00
2017-08-11T18:50:56.428Z,17.10
2017-08-11T18:53:26.982Z,17.10
2017-08-11T18:55:56.045Z,17.10
2017-08-11T18:58:25.631Z,17.10
2017-08-11T19:00:55.528Z,17.00
2017-08-11T19:03:24.720Z,17.00
2017-08-11T19:05:55.068Z,17.00
2017-08-11T19:08:28.521Z,17.00
2017-08-11T19:10:58.560Z,16.90
2017-08-11T19:13:27.015Z,16.90
2017-08-11T19:16:02.960Z,16.90
2017-08-11T19:18:33.924Z,16.90
2017-08-11T19:21:05.233Z,16.90
2017-08-11T19:23:39.575Z,16.90
2017-08-11T19:26:08.149Z,16.90
2017-08-11T19:28:37.289Z,16.80
2017-08-11T19:31:06.135Z,16.80
2017-08-11T19:33:34.518Z,16.80
2017-08-11T19:36:03.041Z,16.80
2017-08-11T19:38:33.164Z,16.80
2017-08-11T19:41:01.906Z,16.80
2017-08-11T19:43:31.521Z,16.80
2017-08-11T19:46:01.743Z,16.80
2017-08-11T19:48:30.500Z,16.80
2017-08-11T19:50:58.974Z,16.80
2017-08-11T19:53:27.787Z,16.80
2017-08-11T19:55:56.372Z,16.80
2017-08-11T19:58:24.933Z,16.90
2017-08-11T20:00:54.344Z,16.90
2017-08-11T20:03:22.992Z,16.80
2017-08-11T20:05:52.366Z,16.80
2017-08-11T20:08:22.040Z,16.80
2017-08-11T20:10:50.838Z,16.80
2017-08-11T20:13:23.835Z,16.70
2017-08-11T20:15:52.518Z,16.50
2017-08-11T20:18:21.125Z,16.40
2017-08-11T20:20:49.824Z,16.40
2017-08-11T20:23:18.372Z,16.40
2017-08-11T20:25:47.792Z,16.40
2017-08-11T20:28:16.219Z,16.40
2017-08-11T20:30:45.645Z,16.40
2017-08-11T20:33:14.025Z,16.30
2017-08-11T20:35:43.494Z,16.30
2017-08-11T20:38:11.810Z,16.40
2017-08-11T20:40:40.179Z,16.30
2017-08-11T20:43:08.837Z,16.30
2017-08-11T20:45:38.058Z,16.40
2017-08-11T20:48:06.521Z,16.40
2017-08-11T20:50:35.665Z,16.40
2017-08-11T20:53:04.861Z,16.40
2017-08-11T20:55:34.338Z,16.50
2017-08-11T20:58:04.911Z,16.50
2017-08-11T21:00:33.468Z,16.50
2017-08-11T21:03:01.789Z,16.40
2017-08-11T21:05:30.883Z,16.40
2017-08-11T21:07:59.292Z,16.30
2017-08-11T21:10:27.802Z,16.30
2017-08-11T21:12:56.739Z,16.40
2017-08-11T21:15:25.791Z,16.40
2017-08-11T21:17:54.373Z,16.30
2017-08-11T21:20:23.982Z,16.30
2017-08-11T21:22:53.312Z,16.30
2017-08-11T21:25:22.176Z,16.30
2017-08-11T21:27:51.986Z,16.20
2017-08-11T21:30:20.596Z,16.30
2017-08-11T21:32:50.948Z,16.30
2017-08-11T21:35:19.803Z,16.30
2017-08-11T21:37:48.219Z,16.30
2017-08-11T21:40:16.570Z,16.30
2017-08-11T21:42:45.012Z,16.30
2017-08-11T21:45:14.378Z,16.30
2017-08-11T21:47:49.338Z,16.30
2017-08-11T21:50:17.691Z,16.30
2017-08-11T21:52:46.000Z,16.30
2017-08-11T21:55:14.947Z,16.20
2017-08-11T21:57:43.310Z,16.20
2017-08-11T22:00:11.719Z,16.20
2017-08-11T22:02:41.057Z,16.20
2017-08-11T22:05:09.401Z,16.20
2017-08-11T22:07:38.801Z,16.30
2017-08-11T22:10:07.212Z,16.30
2017-08-11T22:12:35.551Z,16.30
2017-08-11T22:15:04.908Z,16.30
2017-08-11T22:17:33.715Z,16.30
2017-08-11T22:20:02.658Z,16.30
2017-08-11T22:22:31.136Z,16.40
2017-08-11T22:25:00.123Z,16.30
2017-08-11T22:27:28.636Z,16.30
2017-08-11T22:29:57.848Z,16.30
2017-08-11T22:32:27.409Z,16.30
2017-08-11T22:34:56.641Z,16.30
2017-08-11T22:37:26.407Z,16.30
2017-08-11T22:39:55.686Z,16.30
2017-08-11T22:42:24.211Z,16.30
2017-08-11T22:44:53.591Z,16.10
2017-08-11T22:47:22.855Z,16.10
2017-08-11T22:49:52.625Z,16.10
2017-08-11T22:52:22.335Z,16.10
2017-08-11T22:54:50.911Z,16.10
2017-08-11T22:57:24.174Z,16.10
2017-08-11T22:59:54.734Z,16.00
2017-08-11T23:02:24.052Z,16.00
2017-08-11T23:04:52.630Z,16.00
2017-08-11T23:07:21.508Z,16.00
2017-08-11T23:09:52.125Z,16.00
2017-08-11T23:12:24.887Z,15.90
2017-08-11T23:14:53.301Z,16.00
2017-08-11T23:17:23.385Z,16.00
2017-08-11T23:19:53.166Z,16.00
2017-08-11T23:22:22.233Z,16.00
2017-08-11T23:24:50.641Z,16.10
2017-08-11T23:27:19.837Z,16.00
2017-08-11T23:29:48.202Z,16.10
2017-08-11T23:32:16.581Z,16.10
2017-08-11T23:34:45.102Z,16.00
2017-08-11T23:37:14.646Z,16.00
2017-08-11T23:39:43.768Z,16.10
2017-08-11T23:42:12.421Z,16.10
2017-08-11T23:44:41.708Z,16.10
2017-08-11T23:47:10.034Z,16.10
2017-08-11T23:49:39.467Z,16.10
2017-08-11T23:52:07.814Z,16.20
2017-08-11T23:54:36.153Z,16.10
2017-08-11T23:57:04.836Z,16.10
2017-08-11T23:59:33.289Z,16.20
